Time;durP1;ratioP1;P1;durP2;ratioP2;P2;SDS_P1;SDS_P2;PMS_P1;PMS_P2;Temp;Humidity;BMP_temperature;BMP_pressure;BME280_temperature;BME280_humidity;BME280_pressure;Samples;Min_cycle;Max_cycle;Signal;HPM_P1;HPM_P2
2021/09/16 00:00:16;;;;;;;6.55;1.33;;;;;;;16.68;88.11;101448.78;4976042;28;20830;-61
2021/09/16 00:02:42;;;;;;;5.03;1.20;;;;;;;16.69;87.55;101445.09;4973805;28;20347;-61
2021/09/16 00:05:10;;;;;;;4.60;1.27;;;;;;;16.72;87.45;101452.72;4968975;28;20150;-61
2021/09/16 00:07:37;;;;;;;5.28;1.27;;;;;;;16.67;87.46;101441.81;4973049;28;20398;-61
2021/09/16 00:10:07;;;;;;;6.97;1.33;;;;;;;16.68;87.62;101453.22;4973591;28;20050;-61
2021/09/16 00:12:34;;;;;;;5.90;1.30;;;;;;;16.69;87.02;101452.25;4976093;28;20081;-61
2021/09/16 00:15:02;;;;;;;3.67;1.25;;;;;;;16.63;88.34;101453.75;4973997;28;20156;-61
2021/09/16 00:17:29;;;;;;;11.30;1.90;;;;;;;16.06;92.07;101452.03;4969046;28;20141;-60
2021/09/16 00:19:56;;;;;;;6.03;1.38;;;;;;;15.96;92.87;101452.22;4974507;28;20465;-60
2021/09/16 00:22:23;;;;;;;7.03;1.40;;;;;;;16.28;92.84;101452.34;4970875;28;20142;-60
2021/09/16 00:24:49;;;;;;;4.20;1.45;;;;;;;16.42;90.13;101443.69;4980294;28;20141;-60
2021/09/16 00:27:16;;;;;;;6.45;1.52;;;;;;;16.49;89.57;101449.97;4968919;28;20073;-59
2021/09/16 00:29:42;;;;;;;7.45;1.58;;;;;;;16.58;89.42;101454.25;4975534;28;20092;-61
2021/09/16 00:32:10;;;;;;;4.32;1.50;;;;;;;16.58;89.89;101464.84;4964409;28;20509;-61
2021/09/16 00:34:37;;;;;;;7.78;1.50;;;;;;;15.94;93.86;101461.31;4981216;28;20144;-61
2021/09/16 00:37:03;;;;;;;8.27;1.30;;;;;;;15.87;94.35;101461.16;4974661;28;20141;-61
2021/09/16 00:39:30;;;;;;;8.07;1.83;;;;;;;16.15;92.64;101461.63;4972748;28;20149;-60
2021/09/16 00:41:57;;;;;;;4.15;1.33;;;;;;;15.88;94.64;101468.09;4977349;28;20137;-60
2021/09/16 00:44:23;;;;;;;6.93;1.45;;;;;;;16.10;93.15;101469.25;4969156;28;20058;-61
2021/09/16 00:46:50;;;;;;;9.27;1.40;;;;;;;16.26;91.64;101472.88;4977529;28;20133;-61
2021/09/16 00:49:17;;;;;;;6.75;1.45;;;;;;;16.19;91.37;101468.25;4971873;28;20058;-55
2021/09/16 00:51:46;;;;;;;4.45;1.48;;;;;;;16.30;91.68;101467.06;4975477;28;20078;-61
2021/09/16 00:54:13;;;;;;;5.07;1.23;;;;;;;16.30;91.49;101472.34;4979380;28;20188;-61
2021/09/16 00:56:40;;;;;;;5.95;1.50;;;;;;;16.23;90.88;101470.53;4970360;28;20606;-61
2021/09/16 00:59:07;;;;;;;5.35;1.55;;;;;;;16.28;90.68;101462.94;4973275;28;20050;-61
2021/09/16 01:01:34;;;;;;;8.25;1.67;;;;;;;16.15;92.63;101466.09;4966425;28;20137;-61
2021/09/16 01:04:00;;;;;;;4.75;1.40;;;;;;;15.85;93.19;101457.84;4979393;28;20066;-60
2021/09/16 01:06:27;;;;;;;3.35;1.30;;;;;;;15.65;97.14;101465.25;4969929;28;20101;-61
2021/09/16 01:08:54;;;;;;;9.02;1.88;;;;;;;15.69;96.70;101471.84;4979529;28;20089;-60
2021/09/16 01:11:21;;;;;;;4.75;1.40;;;;;;;15.66;96.14;101468.72;4971503;28;20141;-60
2021/09/16 01:13:48;;;;;;;4.10;1.83;;;;;;;15.58;98.56;101465.09;4967719;28;20140;-61
2021/09/16 01:16:14;;;;;;;9.18;1.40;;;;;;;15.81;95.85;101465.28;4976366;28;20488;-61
2021/09/16 01:18:41;;;;;;;7.05;1.60;;;;;;;15.95;95.63;101466.44;4975471;28;20491;-61
2021/09/16 01:21:07;;;;;;;5.10;1.42;;;;;;;16.01;94.96;101459.66;4976414;28;20653;-62
2021/09/16 01:23:34;;;;;;;6.45;1.50;;;;;;;15.98;96.14;101460.00;4977538;28;20058;-61
2021/09/16 01:26:01;;;;;;;8.73;2.22;;;;;;;15.95;95.07;101463.78;4972728;28;20224;-61
2021/09/16 01:28:27;;;;;;;5.10;1.50;;;;;;;16.10;94.72;101465.78;4979608;28;20062;-61
2021/09/16 01:30:54;;;;;;;5.07;1.40;;;;;;;16.18;94.08;101463.94;4971056;28;20077;-60
2021/09/16 01:33:20;;;;;;;8.35;1.60;;;;;;;16.24;94.62;101459.78;4981796;28;20142;-59
2021/09/16 01:35:46;;;;;;;8.25;1.77;;;;;;;16.01;94.56;101465.78;4969970;28;20089;-61
2021/09/16 01:38:13;;;;;;;7.68;1.63;;;;;;;15.50;99.72;101461.59;4981302;28;20583;-61
2021/09/16 01:40:39;;;;;;;5.15;1.58;;;;;;;15.84;99.05;101458.84;4966491;28;20168;-61
2021/09/16 01:43:06;;;;;;;4.95;1.67;;;;;;;15.98;96.04;101460.81;4982212;28;20085;-61
2021/09/16 01:45:32;;;;;;;4.85;1.20;;;;;;;16.10;95.69;101466.59;4976609;28;20078;-61
2021/09/16 01:48:00;;;;;;;7.53;1.95;;;;;;;16.09;95.91;101469.41;4975088;28;20108;-61
2021/09/16 01:50:26;;;;;;;5.75;1.63;;;;;;;16.16;94.53;101473.88;4976315;28;20054;-60
2021/09/16 01:52:53;;;;;;;10.02;1.55;;;;;;;16.19;94.06;101470.03;4971515;28;20485;-61
2021/09/16 01:55:20;;;;;;;7.78;1.70;;;;;;;16.10;94.92;101465.78;4971376;28;20133;-61
2021/09/16 01:57:47;;;;;;;6.82;1.80;;;;;;;16.18;94.98;101471.06;4973906;28;20133;-62
2021/09/16 02:00:14;;;;;;;5.60;1.85;;;;;;;16.21;94.66;101470.72;4973312;28;20137;-58
2021/09/16 02:02:42;;;;;;;8.38;1.88;;;;;;;16.11;94.55;101470.91;4980370;28;20157;-59
2021/09/16 02:05:09;;;;;;;5.10;1.60;;;;;;;16.13;95.08;101476.88;4974854;28;20552;-59
2021/09/16 02:07:35;;;;;;;4.63;1.52;;;;;;;16.17;94.44;101474.69;4981733;28;20511;-61
2021/09/16 02:10:03;;;;;;;4.90;1.90;;;;;;;15.94;96.34;101474.56;4972124;28;20141;-61
2021/09/16 02:12:30;;;;;;;7.53;1.98;;;;;;;15.51;99.85;101468.53;4982469;28;20057;-61
2021/09/16 02:14:57;;;;;;;6.00;1.95;;;;;;;15.53;100.00;101472.66;4973044;28;20086;-60
2021/09/16 02:17:24;;;;;;;7.15;1.90;;;;;;;15.84;98.80;101469.44;4975609;28;20129;-59
2021/09/16 02:19:50;;;;;;;5.78;2.30;;;;;;;15.85;98.47;101467.59;4977704;28;20066;-61
2021/09/16 02:22:17;;;;;;;8.85;2.15;;;;;;;15.72;98.23;101468.03;4973881;28;20057;-61
2021/09/16 02:24:44;;;;;;;7.53;2.00;;;;;;;15.30;100.00;101475.09;4978201;28;20508;-60
2021/09/16 02:27:10;;;;;;;7.82;2.28;;;;;;;15.20;100.00;101475.22;4974975;28;20463;-62
2021/09/16 02:29:36;;;;;;;13.10;2.80;;;;;;;15.47;100.00;101475.97;4977747;28;20160;-61
2021/09/16 02:32:03;;;;;;;8.52;2.20;;;;;;;15.62;100.00;101481.44;4971004;28;20050;-61
2021/09/16 02:34:30;;;;;;;7.72;2.05;;;;;;;15.42;100.00;101486.19;4973844;28;20145;-62
2021/09/16 02:36:56;;;;;;;5.47;2.03;;;;;;;15.17;100.00;101487.94;4982633;28;20050;-61
2021/09/16 02:39:23;;;;;;;6.25;2.30;;;;;;;15.34;100.00;101492.28;4972708;28;20138;-61
2021/09/16 02:41:49;;;;;;;9.00;2.80;;;;;;;15.23;100.00;101490.78;4983261;28;20150;-61
2021/09/16 02:44:16;;;;;;;6.95;2.00;;;;;;;15.35;100.00;101491.31;4972332;28;20074;-61
2021/09/16 02:46:42;;;;;;;6.13;2.15;;;;;;;15.20;100.00;101496.38;4975905;28;20050;-60
2021/09/16 02:49:09;;;;;;;8.35;2.30;;;;;;;15.49;100.00;101487.22;4970079;28;20077;-59
2021/09/16 02:51:35;;;;;;;7.15;2.50;;;;;;;15.28;100.00;101492.09;4978656;28;20085;-60
2021/09/16 02:54:02;;;;;;;8.85;2.05;;;;;;;15.60;100.00;101483.41;4977460;28;20149;-61
2021/09/16 02:56:28;;;;;;;6.80;2.20;;;;;;;15.47;100.00;101486.53;4973467;28;20503;-61
2021/09/16 02:58:54;;;;;;;8.43;2.35;;;;;;;15.44;100.00;101484.22;4977006;28;20423;-61
2021/09/16 03:01:21;;;;;;;8.60;2.10;;;;;;;15.29;100.00;101481.38;4969232;28;20146;-60
2021/09/16 03:03:48;;;;;;;4.65;1.88;;;;;;;15.38;100.00;101483.03;4979020;28;20154;-62
2021/09/16 03:06:14;;;;;;;6.15;1.92;;;;;;;15.30;100.00;101490.13;4970997;28;20532;-62
2021/09/16 03:08:40;;;;;;;6.07;2.30;;;;;;;15.32;100.00;101493.44;4979274;28;20666;-62
2021/09/16 03:11:07;;;;;;;6.97;2.60;;;;;;;15.57;100.00;101499.63;4977754;28;20084;-61
2021/09/16 03:13:33;;;;;;;6.78;2.50;;;;;;;15.48;100.00;101501.41;4969535;28;20056;-62
2021/09/16 03:16:00;;;;;;;11.95;2.40;;;;;;;15.75;100.00;101524.13;4974401;28;20137;-61
2021/09/16 03:18:26;;;;;;;11.27;2.20;;;;;;;16.11;100.00;101515.91;4973866;28;20153;-60
2021/09/16 03:20:53;;;;;;;5.55;2.15;;;;;;;16.36;96.95;101523.81;4979470;28;20070;-60
2021/09/16 03:23:19;;;;;;;10.32;2.38;;;;;;;15.75;100.00;101516.19;4976567;28;20137;-59
2021/09/16 03:25:46;;;;;;;7.90;2.40;;;;;;;15.94;100.00;101516.88;4976814;28;20213;-58
2021/09/16 03:28:12;;;;;;;7.68;2.38;;;;;;;15.85;100.00;101516.03;4974468;28;20464;-60
2021/09/16 03:30:39;;;;;;;7.45;2.35;;;;;;;15.71;100.00;101509.53;4965962;28;20133;-61
2021/09/16 03:33:05;;;;;;;9.40;2.67;;;;;;;16.16;100.00;101507.44;4978287;28;20114;-60
2021/09/16 03:35:32;;;;;;;10.05;2.47;;;;;;;16.26;98.59;101510.75;4969006;28;20050;-62
2021/09/16 03:37:58;;;;;;;6.95;2.58;;;;;;;16.28;98.93;101510.59;4976728;28;20166;-62
2021/09/16 03:40:25;;;;;;;10.38;2.53;;;;;;;16.34;97.86;101515.22;4974913;28;20475;-62
2021/09/16 03:42:51;;;;;;;6.38;2.17;;;;;;;16.43;97.47;101516.84;4964481;28;20148;-62
2021/09/16 03:45:18;;;;;;;7.15;2.50;;;;;;;16.43;98.25;101524.81;4973934;28;20500;-59
2021/09/16 03:47:45;;;;;;;6.60;2.25;;;;;;;16.47;97.54;101517.34;4967437;28;20150;-61
2021/09/16 03:50:12;;;;;;;6.65;2.25;;;;;;;16.49;96.81;101521.47;4976102;28;20137;-62
2021/09/16 03:52:38;;;;;;;7.72;2.10;;;;;;;16.46;97.45;101511.22;4974003;28;20901;-60
2021/09/16 03:55:06;;;;;;;7.88;2.20;;;;;;;16.63;97.67;101513.84;4973703;28;20056;-62
2021/09/16 03:57:32;;;;;;;8.23;2.15;;;;;;;16.64;97.61;101515.47;4975278;28;20483;-60
2021/09/16 03:59:59;;;;;;;9.07;2.67;;;;;;;16.67;97.68;101513.31;4969535;28;20046;-60
2021/09/16 04:02:26;;;;;;;6.13;2.30;;;;;;;16.56;97.51;101517.16;4980094;28;20085;-60
2021/09/16 04:04:52;;;;;;;5.97;2.10;;;;;;;16.62;98.47;101526.22;4971803;28;20074;-60
2021/09/16 04:07:19;;;;;;;10.35;2.92;;;;;;;16.55;99.29;101519.97;4977020;28;20515;-60
2021/09/16 04:09:45;;;;;;;9.27;2.00;;;;;;;16.38;100.00;101514.69;4972593;28;20562;-59
2021/09/16 04:12:11;;;;;;;7.90;2.42;;;;;;;16.50;100.00;101522.28;4979030;28;20078;-60
2021/09/16 04:14:38;;;;;;;6.07;2.60;;;;;;;16.53;100.00;101525.44;4974836;28;20153;-60
2021/09/16 04:17:04;;;;;;;9.02;2.17;;;;;;;16.60;100.00;101522.94;4977352;28;20058;-60
2021/09/16 04:19:31;;;;;;;8.90;2.42;;;;;;;16.43;100.00;101522.16;4973245;28;20077;-60
2021/09/16 04:21:58;;;;;;;5.28;1.75;;;;;;;16.19;100.00;101515.88;4970821;28;20086;-60
2021/09/16 04:24:24;;;;;;;9.30;3.05;;;;;;;15.95;100.00;101519.34;4974833;28;20046;-59
2021/09/16 04:26:51;;;;;;;7.15;2.38;;;;;;;15.52;100.00;101520.41;4972672;28;20545;-59
2021/09/16 04:29:19;;;;;;;;;;;;;;;15.49;100.00;101521.56;4973675;28;20057;-59
2021/09/16 04:31:45;;;;;;;7.07;2.78;;;;;;;16.01;100.00;101520.50;4978462;28;19969;-56
2021/09/16 04:34:12;;;;;;;4.72;1.95;;;;;;;16.24;100.00;101525.16;4966066;28;20560;-59
2021/09/16 04:36:38;;;;;;;9.68;2.42;;;;;;;16.37;100.00;101522.81;4977119;28;20518;-59
2021/09/16 04:39:05;;;;;;;7.07;2.17;;;;;;;15.74;100.00;101517.19;4969062;28;20156;-58
2021/09/16 04:41:32;;;;;;;5.70;2.25;;;;;;;15.68;100.00;101517.81;4979217;28;20133;-58
2021/09/16 04:43:58;;;;;;;6.07;1.73;;;;;;;15.67;100.00;101524.09;4970288;28;20082;-60
2021/09/16 04:46:25;;;;;;;7.55;1.73;;;;;;;16.20;100.00;101524.66;4979627;28;20089;-60
2021/09/16 04:48:51;;;;;;;11.73;2.22;;;;;;;16.48;100.00;101522.47;4969953;28;20058;-61
2021/09/16 04:51:18;;;;;;;6.10;2.22;;;;;;;16.57;100.00;101521.47;4973758;28;20057;-61
2021/09/16 04:53:45;;;;;;;8.80;2.00;;;;;;;16.58;100.00;101522.28;4976797;28;20817;-60
2021/09/16 04:56:11;;;;;;;6.63;1.85;;;;;;;16.11;100.00;101526.47;4972627;28;20493;-59
2021/09/16 04:58:37;;;;;;;4.32;1.60;;;;;;;15.67;100.00;101526.72;4979980;28;20086;-59
2021/09/16 05:01:04;;;;;;;4.30;1.63;;;;;;;15.60;100.00;101531.84;4974712;28;20133;-60
2021/09/16 05:03:31;;;;;;;4.50;1.65;;;;;;;15.71;100.00;101528.06;4973173;28;20046;-61
2021/09/16 05:05:58;;;;;;;6.25;1.85;;;;;;;15.51;100.00;101532.00;4981247;28;20050;-60
2021/09/16 05:08:24;;;;;;;4.65;1.60;;;;;;;16.02;100.00;101535.41;4971980;28;20655;-58
2021/09/16 05:10:50;;;;;;;7.32;1.80;;;;;;;15.70;100.00;101523.78;4983410;28;20042;-60
2021/09/16 05:13:17;;;;;;;8.43;2.00;;;;;;;15.57;100.00;101526.88;4973403;28;20062;-60
2021/09/16 05:15:43;;;;;;;7.43;1.70;;;;;;;15.78;100.00;101531.75;4978218;28;20128;-58
2021/09/16 05:18:10;;;;;;;4.60;1.50;;;;;;;15.45;100.00;101530.00;4970230;28;20765;-61
2021/09/16 05:20:36;;;;;;;6.38;1.70;;;;;;;15.71;100.00;101532.53;4980849;28;20379;-57
2021/09/16 05:23:03;;;;;;;4.93;1.63;;;;;;;15.75;100.00;101539.19;4979686;28;20046;-59
2021/09/16 05:25:29;;;;;;;7.13;1.50;;;;;;;15.62;100.00;101536.97;4975047;28;20098;-61
2021/09/16 05:27:56;;;;;;;5.63;1.50;;;;;;;15.50;100.00;101541.72;4980071;28;20388;-61
2021/09/16 05:30:23;;;;;;;8.10;1.67;;;;;;;15.82;100.00;101542.84;4970063;28;20066;-60
2021/09/16 05:32:49;;;;;;;7.78;1.80;;;;;;;16.30;100.00;101535.88;4973852;28;20157;-61
2021/09/16 05:35:16;;;;;;;3.85;1.42;;;;;;;16.17;100.00;101540.84;4976987;28;20137;-59
2021/09/16 05:37:42;;;;;;;8.13;1.75;;;;;;;15.79;100.00;101543.97;4980419;28;20145;-58
2021/09/16 05:40:10;;;;;;;10.50;1.75;;;;;;;16.05;100.00;101536.88;4976893;28;20137;-60
2021/09/16 05:42:37;;;;;;;6.17;1.77;;;;;;;16.14;100.00;101542.03;4975570;28;20077;-62
2021/09/16 05:45:08;;;;;;;9.02;1.58;;;;;;;15.96;100.00;101544.81;4972852;28;20360;-61
2021/09/16 05:47:34;;;;;;;12.73;1.67;;;;;;;16.37;100.00;101542.19;4966616;28;20150;-61
2021/09/16 05:50:03;;;;;;;6.80;1.83;;;;;;;16.57;99.84;101550.59;4975821;28;20380;-59
2021/09/16 05:52:29;;;;;;;6.45;1.70;;;;;;;16.35;100.00;101543.34;4973382;28;20141;-60
2021/09/16 05:54:55;;;;;;;6.78;1.50;;;;;;;16.10;100.00;101553.94;4981706;28;20128;-60
2021/09/16 05:57:22;;;;;;;4.93;1.40;;;;;;;15.92;100.00;101555.91;4975131;28;20464;-59
2021/09/16 05:59:48;;;;;;;5.50;1.45;;;;;;;16.07;100.00;101564.00;4970058;28;20371;-60
2021/09/16 06:02:15;;;;;;;5.75;1.60;;;;;;;15.96;100.00;101573.94;4978997;28;20582;-59
2021/09/16 06:04:42;;;;;;;4.93;1.50;;;;;;;16.05;100.00;101572.09;4973614;28;20519;-59
2021/09/16 06:07:08;;;;;;;6.43;1.67;;;;;;;16.44;100.00;101573.28;4978435;28;20058;-59
2021/09/16 06:09:35;;;;;;;3.25;1.40;;;;;;;16.06;100.00;101576.41;4975480;28;20050;-60
2021/09/16 06:12:03;;;;;;;5.53;1.42;;;;;;;16.19;100.00;101568.81;4976632;28;20065;-60
2021/09/16 06:14:30;;;;;;;4.13;1.33;;;;;;;15.91;100.00;101575.41;4969997;28;20073;-58
2021/09/16 06:16:57;;;;;;;5.00;1.53;;;;;;;15.62;100.00;101573.97;4980640;28;20537;-59
2021/09/16 06:19:23;;;;;;;11.30;2.30;;;;;;;16.16;100.00;101579.72;4980192;28;20109;-60
2021/09/16 06:21:50;;;;;;;5.78;1.58;;;;;;;16.61;98.75;101575.75;4970764;28;20054;-60
2021/09/16 06:24:16;;;;;;;6.60;1.85;;;;;;;16.20;100.00;101572.28;4977272;28;20050;-60
2021/09/16 06:26:43;;;;;;;10.73;1.60;;;;;;;15.68;100.00;101578.66;4966023;28;20136;-60
2021/09/16 06:29:10;;;;;;;5.22;1.42;;;;;;;15.65;100.00;101586.06;4972417;28;20858;-60
2021/09/16 06:31:37;;;;;;;7.30;1.63;;;;;;;15.57;100.00;101592.97;4969914;28;20558;-61
2021/09/16 06:34:04;;;;;;;8.80;2.03;;;;;;;16.28;100.00;101592.66;4976944;28;20056;-60
2021/09/16 06:36:30;;;;;;;4.53;1.40;;;;;;;16.51;100.00;101585.69;4981620;28;20060;-59
2021/09/16 06:38:56;;;;;;;7.05;1.60;;;;;;;16.57;98.38;101592.16;4971699;28;20470;-61
2021/09/16 06:41:23;;;;;;;5.97;1.52;;;;;;;16.77;97.12;101597.91;4972587;28;20148;-62
2021/09/16 06:43:49;;;;;;;3.78;1.20;;;;;;;16.61;96.05;101604.88;4970843;28;20404;-60
2021/09/16 06:46:19;;;;;;;5.28;1.60;;;;;;;16.80;96.02;101609.00;4981164;28;20162;-60
2021/09/16 06:48:45;;;;;;;8.70;1.38;;;;;;;16.93;95.27;101599.72;4970178;28;20133;-60
2021/09/16 06:51:12;;;;;;;5.72;1.52;;;;;;;16.91;96.33;101601.72;4981264;28;20403;-60
2021/09/16 06:53:57;;;;;;;4.32;1.55;;;;;;;16.96;95.85;101608.16;4974524;28;20048;-61
2021/09/16 06:56:24;;;;;;;5.97;1.65;;;;;;;16.89;94.66;101601.88;4972898;28;20159;-59
2021/09/16 06:58:50;;;;;;;2.50;1.40;;;;;;;16.90;94.65;101602.72;4977983;28;20132;-60
2021/09/16 07:01:17;;;;;;;7.57;1.48;;;;;;;17.06;95.37;101609.81;4972768;28;20085;-61
2021/09/16 07:03:45;;;;;;;6.63;1.50;;;;;;;16.92;94.50;101606.84;4976404;28;20058;-60
2021/09/16 07:06:12;;;;;;;;;;;;;;;17.01;94.10;101602.34;4977529;28;20050;-59
2021/09/16 07:08:39;;;;;;;4.88;1.70;;;;;;;16.92;93.97;101609.50;4971678;28;20379;-61
2021/09/16 07:11:05;;;;;;;8.93;2.13;;;;;;;17.02;94.41;101606.66;4974838;28;20703;-61
2021/09/16 07:13:32;;;;;;;8.18;1.92;;;;;;;17.02;94.67;101611.97;4972679;28;20109;-60
2021/09/16 07:15:58;;;;;;;10.02;2.10;;;;;;;17.12;95.40;101614.44;4981104;28;20062;-60
2021/09/16 07:18:25;;;;;;;4.28;1.80;;;;;;;17.04;95.35;101615.28;4970356;28;20469;-61
2021/09/16 07:20:51;;;;;;;8.77;2.05;;;;;;;16.93;96.28;101612.97;4979294;28;20048;-61
2021/09/16 07:23:18;;;;;;;9.23;2.10;;;;;;;17.02;96.46;101611.97;4964270;28;20082;-61
2021/09/16 07:25:44;;;;;;;10.52;2.00;;;;;;;17.21;95.40;101613.41;4978940;28;20140;-61
2021/09/16 07:28:11;;;;;;;8.27;1.83;;;;;;;17.08;95.36;101607.81;4977439;28;20109;-61
2021/09/16 07:30:37;;;;;;;7.10;2.00;;;;;;;17.23;95.44;101602.63;4974799;28;20537;-63
2021/09/16 07:33:04;;;;;;;6.10;1.98;;;;;;;17.39;95.09;101607.88;4976020;28;20448;-61
2021/09/16 07:35:31;;;;;;;6.32;1.70;;;;;;;17.48;94.52;101609.47;4972677;28;20074;-61
2021/09/16 07:37:57;;;;;;;9.90;2.25;;;;;;;17.49;93.20;101620.94;4976519;28;20471;-61
2021/09/16 07:40:23;;;;;;;5.72;2.03;;;;;;;17.43;92.28;101618.97;4972786;28;20078;-63
2021/09/16 07:42:50;;;;;;;7.53;1.75;;;;;;;17.44;92.54;101615.31;4977665;28;20101;-61
2021/09/16 07:45:16;;;;;;;8.60;2.20;;;;;;;17.59;92.17;101617.06;4979441;28;20047;-62
2021/09/16 07:47:43;;;;;;;5.45;2.00;;;;;;;17.72;91.94;101626.28;4962806;28;20164;-61
2021/09/16 07:50:10;;;;;;;8.65;2.80;;;;;;;17.35;92.43;101618.00;4976597;28;20137;-62
2021/09/16 07:52:37;;;;;;;7.20;3.00;;;;;;;16.60;98.78;101616.47;4967309;28;20781;-62
2021/09/16 07:55:04;;;;;;;8.18;3.25;;;;;;;16.40;100.00;101621.25;4979532;28;20046;-61
2021/09/16 07:57:31;;;;;;;11.73;3.78;;;;;;;17.04;100.00;101631.19;4969909;28;20081;-61
2021/09/16 07:59:58;;;;;;;9.75;3.40;;;;;;;16.60;100.00;101621.78;4975515;28;20358;-62
2021/09/16 08:02:25;;;;;;;10.30;2.70;;;;;;;16.42;100.00;101621.09;4972750;28;20159;-62
2021/09/16 08:04:51;;;;;;;6.32;2.97;;;;;;;16.59;100.00;101616.63;4974117;28;20042;-62
2021/09/16 08:07:18;;;;;;;6.13;2.00;;;;;;;16.66;100.00;101614.13;4977151;28;20290;-62
2021/09/16 08:09:44;;;;;;;5.97;1.90;;;;;;;17.02;100.00;101619.91;4972864;28;20142;-61
2021/09/16 08:12:11;;;;;;;3.22;1.33;;;;;;;16.84;100.00;101619.28;4979518;28;20129;-61
2021/09/16 08:14:37;;;;;;;4.68;1.42;;;;;;;16.78;100.00;101615.47;4972384;28;20081;-62
2021/09/16 08:17:04;;;;;;;5.43;1.45;;;;;;;16.64;100.00;101609.03;4974010;28;20046;-61
2021/09/16 08:19:31;;;;;;;6.88;1.55;;;;;;;16.69;100.00;101608.53;4978295;28;20050;-61
2021/09/16 08:21:58;;;;;;;3.88;1.35;;;;;;;16.68;100.00;101615.66;4970281;28;20522;-62
2021/09/16 08:24:24;;;;;;;7.40;1.50;;;;;;;16.81;100.00;101615.13;4978741;28;20081;-61
2021/09/16 08:26:52;;;;;;;5.95;1.35;;;;;;;16.98;100.00;101621.25;4969230;28;20054;-62
2021/09/16 08:29:18;;;;;;;3.33;1.52;;;;;;;16.86;100.00;101626.09;4974775;28;20059;-62
2021/09/16 08:31:45;;;;;;;9.57;1.50;;;;;;;16.91;100.00;101625.56;4969702;28;20043;-61
2021/09/16 08:34:12;;;;;;;8.35;1.70;;;;;;;16.92;100.00;101633.34;4980588;28;20546;-61
2021/09/16 08:36:38;;;;;;;4.45;1.30;;;;;;;17.06;100.00;101625.72;4981696;28;20473;-61
2021/09/16 08:39:04;;;;;;;4.10;1.27;;;;;;;17.37;100.00;101631.09;4970005;28;20054;-61
2021/09/16 08:41:33;;;;;;;6.75;1.50;;;;;;;17.27;99.24;101633.94;4977422;28;20101;-62
2021/09/16 08:44:02;;;;;;;5.20;1.60;;;;;;;17.61;99.66;101642.59;4970565;28;20065;-61
2021/09/16 08:46:29;;;;;;;4.45;1.45;;;;;;;17.62;96.00;101639.78;4982256;28;20050;-63
2021/09/16 08:48:56;;;;;;;6.57;1.33;;;;;;;17.92;95.31;101642.63;4973414;28;20054;-62
2021/09/16 08:51:22;;;;;;;6.35;2.15;;;;;;;18.01;92.75;101635.44;4983458;28;20598;-60
2021/09/16 08:53:52;;;;;;;8.43;2.17;;;;;;;18.40;89.14;101637.16;4980256;28;20165;-61
2021/09/16 08:56:20;;;;;;;4.95;1.63;;;;;;;18.28;89.66;101640.22;4975008;28;20380;-61
2021/09/16 08:58:47;;;;;;;3.65;0.95;;;;;;;18.00;89.49;101645.25;4974949;28;20149;-61
2021/09/16 09:01:15;;;;;;;5.72;1.33;;;;;;;18.01;92.66;101636.25;4976815;28;20161;-61
2021/09/16 09:03:42;;;;;;;5.18;1.58;;;;;;;18.41;91.02;101644.13;4979025;28;20058;-61
2021/09/16 09:06:27;;;;;;;7.95;1.92;;;;;;;18.48;85.66;101651.19;4973778;28;20146;-61
2021/09/16 09:09:13;;;;;;;4.20;1.23;;;;;;;18.36;88.58;101650.78;4976552;28;20590;-62
2021/09/16 09:12:10;;;;;;;6.28;1.20;;;;;;;18.55;90.95;101649.47;4972178;28;20153;-61
2021/09/16 09:14:42;;;;;;;4.15;1.40;;;;;;;18.57;87.78;101655.44;4977045;28;20142;-61
2021/09/16 09:17:22;;;;;;;5.55;1.10;;;;;;;18.58;90.85;101654.44;4974696;28;20452;-61
2021/09/16 09:19:52;;;;;;;4.03;1.20;;;;;;;18.70;87.74;101654.84;4976244;28;20085;-62
2021/09/16 09:22:27;;;;;;;4.70;1.45;;;;;;;18.93;84.33;101657.50;4981423;28;20114;-62
2021/09/16 09:25:00;;;;;;;5.90;1.77;;;;;;;18.88;86.69;101656.38;4969374;28;20058;-62
2021/09/16 09:27:29;;;;;;;2.47;1.30;;;;;;;19.10;84.02;101646.69;4977411;28;20071;-62
2021/09/16 09:30:13;;;;;;;4.82;1.20;;;;;;;19.70;79.15;101653.63;4969879;28;20050;-61
2021/09/16 09:32:50;;;;;;;3.90;1.17;;;;;;;19.99;78.58;101659.06;4977863;28;20082;-62
2021/09/16 09:35:32;;;;;;;6.38;1.40;;;;;;;20.43;78.11;101658.91;4972289;28;20096;-62
2021/09/16 09:38:22;;;;;;;4.60;1.30;;;;;;;20.76;77.17;101660.22;4971043;28;20046;-61
2021/09/16 09:40:52;;;;;;;2.65;1.10;;;;;;;20.71;75.55;101658.13;4962216;28;20149;-61
2021/09/16 09:43:23;;;;;;;6.50;1.30;;;;;;;20.91;77.78;101669.78;4976905;28;20191;-61
2021/09/16 09:46:01;;;;;;;7.20;1.20;;;;;;;20.96;75.15;101657.72;4975709;28;20074;-62
2021/09/16 09:48:29;;;;;;;3.95;1.38;;;;;;;20.62;76.95;101665.47;4977175;28;20449;-61
2021/09/16 09:50:56;;;;;;;5.50;1.85;;;;;;;20.10;78.42;101669.25;4979282;28;20137;-61
2021/09/16 09:53:22;;;;;;;4.25;1.60;;;;;;;19.84;81.61;101662.59;4965601;28;20817;-62
2021/09/16 09:55:52;;;;;;;5.78;1.65;;;;;;;19.60;79.12;101677.03;4981475;28;20145;-62
2021/09/16 09:58:32;;;;;;;3.80;1.38;;;;;;;19.70;77.65;101674.09;4973033;28;20571;-61
2021/09/16 10:01:28;;;;;;;4.85;1.30;;;;;;;20.25;74.69;101678.00;4979292;28;20679;-60
2021/09/16 10:03:55;;;;;;;2.40;1.20;;;;;;;20.73;71.12;101677.44;4973804;28;20058;-62
2021/09/16 10:06:32;;;;;;;3.90;1.38;;;;;;;21.16;70.63;101676.50;4973605;28;20570;-61
2021/09/16 10:09:10;;;;;;;6.65;1.50;;;;;;;21.30;69.28;101670.22;4959857;28;20082;-61
2021/09/16 10:11:42;;;;;;;7.35;1.67;;;;;;;20.75;69.67;101667.41;4975587;28;20141;-62
2021/09/16 10:14:09;;;;;;;8.18;1.60;;;;;;;20.66;70.92;101664.06;4976274;28;20546;-61
2021/09/16 10:16:36;;;;;;;2.78;1.05;;;;;;;20.39;71.17;101665.63;4976351;28;20145;-60
2021/09/16 10:19:03;;;;;;;8.77;1.63;;;;;;;20.30;70.79;101664.09;4979613;28;20081;-61
2021/09/16 10:21:31;;;;;;;10.60;1.58;;;;;;;20.58;71.09;101669.50;4964368;28;20138;-61
2021/09/16 10:23:59;;;;;;;5.40;1.43;;;;;;;20.70;70.11;101669.84;4981472;28;20133;-61
2021/09/16 10:26:43;;;;;;;6.65;1.55;;;;;;;20.99;69.92;101666.13;4971332;28;20411;-61
2021/09/16 10:29:28;;;;;;;5.55;1.52;;;;;;;21.65;72.36;101673.72;4981695;28;20100;-62
2021/09/16 10:32:06;;;;;;;4.38;1.40;;;;;;;22.11;65.26;101667.69;4969142;28;20137;-61
2021/09/16 10:34:43;;;;;;;6.00;1.60;;;;;;;21.63;67.30;101673.09;4977301;28;20047;-61
2021/09/16 10:37:14;;;;;;;5.75;1.40;;;;;;;21.64;66.83;101676.56;4968559;28;20133;-62
2021/09/16 10:39:42;;;;;;;3.10;1.40;;;;;;;22.23;63.02;101675.94;4979722;28;20143;-60
2021/09/16 10:42:10;;;;;;;6.45;1.50;;;;;;;22.02;63.58;101673.44;4979588;28;20141;-61
2021/09/16 10:44:37;;;;;;;4.50;1.40;;;;;;;22.03;64.16;101664.38;4971578;28;20086;-62
2021/09/16 10:47:16;;;;;;;5.25;1.20;;;;;;;22.14;63.00;101662.97;4977418;28;20165;-62
2021/09/16 10:49:43;;;;;;;6.68;1.30;;;;;;;23.09;62.33;101666.28;4968535;28;20542;-61
2021/09/16 10:52:09;;;;;;;5.80;1.55;;;;;;;22.76;60.17;101672.50;4978401;28;20070;-62
2021/09/16 10:54:39;;;;;;;5.95;1.27;;;;;;;22.56;60.30;101674.34;4970017;28;20062;-61
2021/09/16 10:57:38;;;;;;;4.55;1.45;;;;;;;22.83;61.58;101669.81;4981696;28;20492;-61
2021/09/16 11:00:13;;;;;;;9.00;1.77;;;;;;;22.69;61.11;101669.00;4945431;28;20065;-61
2021/09/16 11:02:39;;;;;;;2.58;1.30;;;;;;;23.02;60.07;101652.09;4973102;28;20498;-62
2021/09/16 11:05:12;;;;;;;3.47;1.42;;;;;;;22.73;60.24;101662.22;4978121;28;20069;-62
2021/09/16 11:07:44;;;;;;;4.72;1.40;;;;;;;23.47;55.85;101669.06;4971686;28;20054;-62
2021/09/16 11:10:18;;;;;;;4.75;1.48;;;;;;;24.08;55.48;101662.41;4980149;28;20069;-60
2021/09/16 11:12:47;;;;;;;4.72;1.40;;;;;;;23.60;57.44;101670.06;4974465;28;20141;-62
2021/09/16 11:15:27;;;;;;;4.43;1.20;;;;;;;24.63;55.29;101666.38;4971076;28;20054;-61
2021/09/16 11:18:09;;;;;;;3.75;1.30;;;;;;;24.46;53.25;101663.38;4968386;28;20051;-62
2021/09/16 11:20:37;;;;;;;6.45;1.30;;;;;;;24.18;54.59;101669.97;4975714;28;20137;-62
2021/09/16 11:23:05;;;;;;;4.80;1.38;;;;;;;24.25;54.43;101665.41;4971449;28;20081;-62
2021/09/16 11:25:43;;;;;;;7.13;1.40;;;;;;;23.82;56.02;101678.66;4975888;28;20149;-61